createdAt,value
2018-11-22T00:01:39.366Z,36.00
2018-11-22T00:04:29.518Z,33.80
2018-11-22T00:07:19.797Z,37.60
2018-11-22T00:10:10.989Z,35.17
2018-11-22T00:13:01.109Z,35.07
2018-11-22T00:15:53.482Z,36.93
2018-11-22T00:18:43.628Z,36.37
2018-11-22T00:21:33.769Z,36.23
2018-11-22T00:24:24.014Z,37.80
2018-11-22T00:27:14.143Z,35.67
2018-11-22T00:30:04.250Z,36.37
2018-11-22T00:32:54.438Z,36.37
2018-11-22T00:35:44.514Z,37.13
2018-11-22T00:38:34.573Z,37.50
2018-11-22T00:41:24.682Z,35.75
2018-11-22T00:44:14.857Z,37.27
2018-11-22T00:47:05.213Z,35.88
2018-11-22T00:49:55.252Z,35.77
2018-11-22T00:52:45.476Z,35.87
2018-11-22T00:55:35.594Z,35.15
2018-11-22T00:58:25.693Z,35.73
2018-11-22T01:01:15.839Z,35.47
2018-11-22T01:04:06.498Z,37.73
2018-11-22T01:06:56.583Z,37.47
2018-11-22T01:09:46.713Z,35.97
2018-11-22T01:12:36.797Z,35.63
2018-11-22T01:15:26.888Z,38.97
2018-11-22T01:18:16.983Z,34.00
2018-11-22T01:21:07.260Z,34.57
2018-11-22T01:23:57.385Z,36.87
2018-11-22T01:26:47.430Z,35.83
2018-11-22T01:29:37.552Z,37.07
2018-11-22T01:32:27.595Z,37.63
2018-11-22T01:35:18.752Z,35.33
2018-11-22T01:38:08.781Z,34.67
2018-11-22T01:40:59.275Z,34.00
2018-11-22T01:43:49.365Z,34.73
2018-11-22T01:46:39.487Z,36.33
2018-11-22T01:49:29.579Z,35.10
2018-11-22T01:52:38.278Z,36.90
2018-11-22T01:55:28.483Z,35.73
2018-11-22T01:58:18.688Z,34.40
2018-11-22T02:01:08.737Z,35.13
2018-11-22T02:03:58.770Z,36.15
2018-11-22T02:06:48.897Z,34.15
2018-11-22T02:09:38.952Z,35.83
2018-11-22T02:12:29.004Z,34.87
2018-11-22T02:15:37.782Z,34.57
2018-11-22T02:18:27.805Z,35.90
2018-11-22T02:21:17.967Z,35.70
2018-11-22T02:24:08.317Z,36.73
2018-11-22T02:26:58.344Z,36.00
2018-11-22T02:29:48.487Z,35.60
2018-11-22T02:32:38.574Z,34.80
2018-11-22T02:35:28.764Z,35.77
2018-11-22T02:38:18.782Z,33.87
2018-11-22T02:41:08.825Z,35.40
2018-11-22T02:43:58.908Z,34.40
2018-11-22T02:46:48.985Z,36.40
2018-11-22T02:49:39.031Z,35.57
2018-11-22T02:52:29.064Z,36.13
2018-11-22T02:55:19.132Z,34.40
2018-11-22T02:58:09.198Z,34.07
2018-11-22T03:00:59.316Z,36.88
2018-11-22T03:03:49.385Z,35.93
2018-11-22T03:06:39.489Z,35.23
2018-11-22T03:09:12.730Z,37.13
2018-11-22T03:12:02.790Z,35.87
2018-11-22T03:14:52.923Z,38.23
2018-11-22T03:17:43.026Z,37.53
2018-11-22T03:20:33.073Z,35.13
2018-11-22T03:23:23.103Z,36.20
2018-11-22T03:26:13.140Z,36.80
2018-11-22T03:29:03.285Z,36.97
2018-11-22T03:31:34.685Z,36.33
2018-11-22T03:34:24.969Z,37.83
2018-11-22T03:37:15.080Z,42.48
2018-11-22T03:40:06.115Z,39.97
2018-11-22T03:42:56.288Z,37.40
2018-11-22T03:45:46.404Z,35.77
2018-11-22T03:48:36.473Z,36.20
2018-11-22T03:51:26.733Z,36.37
2018-11-22T03:54:16.773Z,37.50
2018-11-22T03:57:06.887Z,36.10
2018-11-22T03:59:57.234Z,37.77
2018-11-22T04:02:47.595Z,35.87
2018-11-22T04:05:37.675Z,35.40
2018-11-22T04:08:27.777Z,34.20
2018-11-22T04:11:17.961Z,35.33
2018-11-22T04:14:08.459Z,34.97
2018-11-22T04:16:58.658Z,34.13
2018-11-22T04:19:48.880Z,32.10
2018-11-22T04:22:38.968Z,33.47
2018-11-22T04:25:29.501Z,32.60
2018-11-22T04:28:19.602Z,33.20
2018-11-22T04:31:09.613Z,33.33
2018-11-22T04:33:59.710Z,32.07
2018-11-22T04:36:49.849Z,32.53
2018-11-22T04:39:39.910Z,33.23
2018-11-22T04:42:30.004Z,32.10
2018-11-22T04:45:20.609Z,33.58
2018-11-22T04:48:10.651Z,32.50
2018-11-22T04:51:00.706Z,32.53
2018-11-22T04:53:50.946Z,32.97
2018-11-22T04:56:40.913Z,31.57
2018-11-22T04:59:31.160Z,32.93
2018-11-22T05:02:21.184Z,32.73
2018-11-22T05:05:13.088Z,32.08
2018-11-22T05:08:03.229Z,32.70
2018-11-22T05:10:53.353Z,30.90
2018-11-22T05:13:43.373Z,33.10
2018-11-22T05:16:33.437Z,32.50
2018-11-22T05:19:23.658Z,31.87
2018-11-22T05:22:13.714Z,31.90
2018-11-22T05:25:03.924Z,31.95
2018-11-22T05:27:54.004Z,32.10
2018-11-22T05:30:44.124Z,31.50
2018-11-22T05:33:34.169Z,32.30
2018-11-22T05:36:24.181Z,31.57
2018-11-22T05:38:55.365Z,32.53
2018-11-22T05:41:45.530Z,31.42
2018-11-22T05:44:35.628Z,32.80
2018-11-22T05:47:25.718Z,33.23
2018-11-22T05:50:17.119Z,31.13
2018-11-22T05:53:07.468Z,31.27
2018-11-22T05:55:57.619Z,32.80
2018-11-22T05:58:47.699Z,33.50
2018-11-22T06:01:37.790Z,31.48
2018-11-22T06:04:28.735Z,31.85
2018-11-22T06:07:18.824Z,32.90
2018-11-22T06:10:12.039Z,32.48
2018-11-22T06:13:04.001Z,31.40
2018-11-22T06:15:54.075Z,33.37
2018-11-22T06:18:44.198Z,31.57
2018-11-22T06:21:34.439Z,30.93
2018-11-22T06:24:24.883Z,31.82
2018-11-22T06:27:15.021Z,32.77
2018-11-22T06:30:05.809Z,32.23
2018-11-22T06:32:57.357Z,30.53
2018-11-22T06:35:47.406Z,31.23
2018-11-22T06:38:37.521Z,30.83
2018-11-22T06:41:27.526Z,30.97
2018-11-22T06:44:17.933Z,31.77
2018-11-22T06:47:08.050Z,30.50
2018-11-22T06:49:58.325Z,30.17
2018-11-22T06:52:48.358Z,30.50
2018-11-22T06:55:38.424Z,30.40
2018-11-22T06:58:28.540Z,28.73
2018-11-22T07:01:37.250Z,29.23
2018-11-22T07:04:27.848Z,29.98
2018-11-22T07:07:17.959Z,30.43
2018-11-22T07:10:09.715Z,30.13
2018-11-22T07:13:00.819Z,29.47
2018-11-22T07:15:50.906Z,29.82
2018-11-22T07:18:40.972Z,29.23
2018-11-22T07:21:30.989Z,28.30
2018-11-22T07:24:21.074Z,29.63
2018-11-22T07:27:11.161Z,29.43
2018-11-22T07:30:01.227Z,29.37
2018-11-22T07:32:51.653Z,28.40
2018-11-22T07:35:41.709Z,26.93
2018-11-22T07:38:31.877Z,28.43
2018-11-22T07:41:22.101Z,29.30
2018-11-22T07:44:12.195Z,28.50
2018-11-22T07:47:02.324Z,30.88
2018-11-22T07:49:52.525Z,38.50
2018-11-22T07:52:42.714Z,29.73
2018-11-22T07:55:32.859Z,29.37
2018-11-22T07:58:23.809Z,28.20
2018-11-22T08:01:13.901Z,28.20
2018-11-22T08:04:03.989Z,36.90
2018-11-22T08:06:54.120Z,49.50
2018-11-22T08:09:44.195Z,43.93
2018-11-22T08:12:15.367Z,29.20
2018-11-22T08:15:05.787Z,28.03
2018-11-22T08:17:55.908Z,28.47
2018-11-22T08:20:46.109Z,28.80
2018-11-22T08:23:36.383Z,30.48
2018-11-22T08:26:26.465Z,28.03
2018-11-22T08:29:16.590Z,29.03
2018-11-22T08:34:55.663Z,28.87
2018-11-22T08:37:45.802Z,28.27
2018-11-22T08:40:35.946Z,27.97
2018-11-22T08:43:26.024Z,28.10
2018-11-22T08:46:16.186Z,27.83
2018-11-22T08:49:06.271Z,28.43
2018-11-22T08:51:56.331Z,27.58
2018-11-22T08:54:46.327Z,27.93
2018-11-22T08:57:36.632Z,29.55
2018-11-22T09:00:13.567Z,28.77
2018-11-22T09:03:03.698Z,34.70
2018-11-22T09:05:53.805Z,48.30
2018-11-22T09:08:43.886Z,31.03
2018-11-22T09:11:33.975Z,27.73
2018-11-22T09:14:24.442Z,29.30
2018-11-22T09:17:14.544Z,27.32
2018-11-22T09:20:04.894Z,27.73
2018-11-22T09:22:54.951Z,28.70
2018-11-22T09:25:45.059Z,28.45
2018-11-22T09:28:27.583Z,29.13
2018-11-22T09:31:17.731Z,27.98
2018-11-22T09:34:07.820Z,27.20
2018-11-22T09:36:57.924Z,26.93
2018-11-22T09:39:29.064Z,27.03
2018-11-22T09:42:19.193Z,27.67
2018-11-22T09:45:15.799Z,33.90
2018-11-22T09:48:05.988Z,37.98
2018-11-22T09:50:56.193Z,30.07
2018-11-22T09:53:46.223Z,27.73
2018-11-22T09:56:36.293Z,26.77
2018-11-22T09:59:26.539Z,26.13
2018-11-22T10:02:16.594Z,25.43
2018-11-22T10:05:08.604Z,25.20
2018-11-22T10:07:58.621Z,26.30
2018-11-22T10:10:48.777Z,24.67
2018-11-22T10:13:38.973Z,23.93
2018-11-22T10:16:29.044Z,25.87
2018-11-22T10:19:19.171Z,24.23
2018-11-22T10:22:09.270Z,24.27
2018-11-22T10:24:59.637Z,24.47
2018-11-22T10:28:08.233Z,23.27
2018-11-22T10:30:58.309Z,28.90
2018-11-22T10:33:48.452Z,29.00
2018-11-22T10:36:38.492Z,26.00
2018-11-22T10:39:28.535Z,24.80
2018-11-22T10:42:18.698Z,23.17
2018-11-22T10:45:11.846Z,24.07
2018-11-22T10:48:03.512Z,23.38
2018-11-22T10:50:53.590Z,25.00
2018-11-22T10:53:43.729Z,24.23
2018-11-22T10:56:33.789Z,24.75
2018-11-22T10:59:23.924Z,23.40
2018-11-22T11:02:32.551Z,25.40
2018-11-22T11:05:41.268Z,22.77
2018-11-22T11:08:32.048Z,24.47
2018-11-22T11:11:22.254Z,23.37
2018-11-22T11:14:12.455Z,23.33
2018-11-22T11:17:02.560Z,24.00
2018-11-22T11:19:52.670Z,25.40
2018-11-22T11:22:43.108Z,24.77
2018-11-22T11:25:33.173Z,24.57
2018-11-22T11:28:23.312Z,25.32
2018-11-22T11:31:13.391Z,25.30
2018-11-22T11:34:03.796Z,26.20
2018-11-22T11:36:53.964Z,30.83
2018-11-22T11:39:44.145Z,28.30
2018-11-22T11:42:34.386Z,25.70
2018-11-22T11:45:25.349Z,24.87
2018-11-22T11:48:15.468Z,22.93
2018-11-22T11:51:05.847Z,24.20
2018-11-22T11:54:14.615Z,22.95
2018-11-22T11:57:04.730Z,24.13
2018-11-22T11:59:54.867Z,24.20
2018-11-22T12:02:45.659Z,23.20
2018-11-22T12:05:35.785Z,21.77
2018-11-22T12:08:25.876Z,22.23
2018-11-22T12:11:15.971Z,22.40
2018-11-22T12:14:06.167Z,21.65
2018-11-22T12:16:56.325Z,21.30
2018-11-22T12:19:46.480Z,21.30
2018-11-22T12:22:36.611Z,21.90
2018-11-22T12:25:27.708Z,19.83
2018-11-22T12:28:36.323Z,20.40
2018-11-22T12:31:45.043Z,20.30
2018-11-22T12:34:53.722Z,19.47
2018-11-22T12:38:02.446Z,19.50
2018-11-22T12:40:52.641Z,19.12
2018-11-22T12:43:43.210Z,19.70
2018-11-22T12:46:33.321Z,19.87
2018-11-22T12:49:23.438Z,19.27
2018-11-22T12:52:13.509Z,18.77
2018-11-22T12:55:03.650Z,19.43
2018-11-22T12:57:53.912Z,19.13
2018-11-22T13:00:44.135Z,19.70
2018-11-22T13:03:34.301Z,20.53
2018-11-22T13:06:24.490Z,19.87
2018-11-22T13:09:14.709Z,20.03
2018-11-22T13:12:04.807Z,20.67
2018-11-22T13:14:54.940Z,19.03
2018-11-22T13:17:45.146Z,19.17
2018-11-22T13:20:35.282Z,18.73
2018-11-22T13:23:25.392Z,20.27
2018-11-22T13:26:15.443Z,19.42
2018-11-22T13:29:24.138Z,19.98
2018-11-22T13:32:21.126Z,18.35
2018-11-22T13:35:04.477Z,20.47
2018-11-22T13:37:55.640Z,19.15
2018-11-22T13:40:45.761Z,19.80
2018-11-22T13:43:35.998Z,19.77
2018-11-22T13:46:26.178Z,18.48
2018-11-22T13:49:16.359Z,19.77
2018-11-22T13:52:06.876Z,19.37
2018-11-22T13:54:57.317Z,19.90
2018-11-22T13:57:47.414Z,18.70
2018-11-22T14:00:37.480Z,19.35
2018-11-22T14:03:27.556Z,19.40
2018-11-22T14:06:17.681Z,19.20
2018-11-22T14:09:10.408Z,19.13
2018-11-22T14:12:01.335Z,19.82
2018-11-22T14:14:51.543Z,18.87
2018-11-22T14:17:42.204Z,19.47
2018-11-22T14:20:33.682Z,19.20
2018-11-22T14:23:23.824Z,20.73
2018-11-22T14:26:13.911Z,19.10
2018-11-22T14:29:04.084Z,21.13
2018-11-22T14:31:54.179Z,20.53
2018-11-22T14:34:44.349Z,19.47
2018-11-22T14:37:34.716Z,20.00
2018-11-22T14:40:26.419Z,19.20
2018-11-22T14:43:16.672Z,19.23
2018-11-22T14:46:06.831Z,19.70
2018-11-22T14:48:57.043Z,19.90
2018-11-22T14:51:49.311Z,19.90
2018-11-22T14:54:39.499Z,19.25
2018-11-22T14:57:29.699Z,18.63
2018-11-22T15:00:19.882Z,18.73
2018-11-22T15:03:10.007Z,19.95
2018-11-22T15:06:00.151Z,19.33
2018-11-22T15:08:50.368Z,19.10
2018-11-22T15:11:40.629Z,18.23
2018-11-22T15:14:31.747Z,18.82
2018-11-22T15:17:21.914Z,17.80
2018-11-22T15:20:31.068Z,18.63
2018-11-22T15:23:21.455Z,18.42
2018-11-22T15:26:11.704Z,19.10
2018-11-22T15:29:20.458Z,17.40
2018-11-22T15:32:10.537Z,17.37
2018-11-22T15:35:00.791Z,17.40
2018-11-22T15:37:51.328Z,15.73
2018-11-22T15:40:41.546Z,16.37
2018-11-22T15:43:31.742Z,16.13
2018-11-22T15:46:02.999Z,16.13
2018-11-22T15:48:53.262Z,15.07
2018-11-22T15:51:43.455Z,16.03
2018-11-22T15:54:33.583Z,15.03
2018-11-22T15:57:24.928Z,15.32
2018-11-22T16:00:17.656Z,14.90
2018-11-22T16:03:07.858Z,16.05
2018-11-22T16:05:57.966Z,15.40
2018-11-22T16:08:48.091Z,15.90
2018-11-22T16:11:38.218Z,15.90
2018-11-22T16:14:28.333Z,15.50
2018-11-22T16:17:18.622Z,16.47
2018-11-22T16:20:09.436Z,16.37
2018-11-22T16:22:59.720Z,16.87
2018-11-22T16:25:50.062Z,18.87
2018-11-22T16:28:40.165Z,18.60
2018-11-22T16:31:30.373Z,18.00
2018-11-22T16:34:20.516Z,19.23
2018-11-22T16:37:10.677Z,19.50
2018-11-22T16:40:00.975Z,18.27
2018-11-22T16:42:52.081Z,18.55
2018-11-22T16:45:42.243Z,18.33
2018-11-22T16:48:32.486Z,18.60
2018-11-22T16:51:22.704Z,18.17
2018-11-22T16:57:08.245Z,18.93
2018-11-22T16:59:58.529Z,18.42
2018-11-22T17:02:49.898Z,18.80
2018-11-22T17:05:40.337Z,19.17
2018-11-22T17:08:30.863Z,18.43
2018-11-22T17:11:21.250Z,18.97
2018-11-22T17:14:11.391Z,20.23
2018-11-22T17:17:20.047Z,19.23
2018-11-22T17:20:12.821Z,18.17
2018-11-22T17:23:03.612Z,19.70
2018-11-22T17:25:53.915Z,19.57
2018-11-22T17:28:44.270Z,19.37
2018-11-22T17:31:34.488Z,20.60
2018-11-22T17:34:24.672Z,19.57
2018-11-22T17:37:14.950Z,21.27
2018-11-22T17:40:05.841Z,21.67
2018-11-22T17:42:56.148Z,21.90
2018-11-22T17:45:47.851Z,20.40
2018-11-22T17:48:38.208Z,21.07
2018-11-22T17:51:28.572Z,20.50
2018-11-22T17:54:18.804Z,19.60
2018-11-22T17:57:09.004Z,20.62
2018-11-22T17:59:59.144Z,20.73
2018-11-22T18:02:50.701Z,23.53
2018-11-22T18:05:59.716Z,21.23
2018-11-22T18:08:50.117Z,18.53
2018-11-22T18:11:21.478Z,18.37
2018-11-22T18:14:11.850Z,18.03
2018-11-22T18:17:02.197Z,18.07
2018-11-22T18:19:52.478Z,18.30
2018-11-22T18:23:03.310Z,17.63
2018-11-22T18:26:12.116Z,17.03
2018-11-22T18:29:02.363Z,17.37
2018-11-22T18:31:52.739Z,17.90
2018-11-22T18:34:42.967Z,18.27
2018-11-22T18:37:33.140Z,18.65
2018-11-22T18:40:24.672Z,16.73
2018-11-22T18:43:15.108Z,17.52
2018-11-22T18:46:05.400Z,18.67
2018-11-22T18:48:55.822Z,17.50
2018-11-22T18:51:45.993Z,17.13
2018-11-22T18:54:36.271Z,15.88
2018-11-22T18:57:26.574Z,17.23
2018-11-22T19:00:22.037Z,17.73
2018-11-22T19:03:14.056Z,16.70
2018-11-22T19:06:04.336Z,15.95
2018-11-22T19:08:54.686Z,17.80
2018-11-22T19:12:03.398Z,18.60
2018-11-22T19:14:53.601Z,18.90
2018-11-22T19:17:43.736Z,7.87
2018-11-22T19:20:35.649Z,15.23
2018-11-22T19:23:07.862Z,15.37
2018-11-22T19:25:58.119Z,15.43
2018-11-22T19:28:48.360Z,15.27
2018-11-22T19:31:38.546Z,15.53
2018-11-22T19:34:28.732Z,19.10
2018-11-22T19:37:18.941Z,19.00
2018-11-22T19:40:29.306Z,17.80
2018-11-22T19:43:19.388Z,19.37
2018-11-22T19:46:09.597Z,19.77
2018-11-22T19:49:00.079Z,21.67
2018-11-22T19:51:50.233Z,20.57
2018-11-22T19:54:40.619Z,19.40
2018-11-22T19:57:30.798Z,20.63
2018-11-22T20:00:21.712Z,19.80
2018-11-22T20:03:12.048Z,19.13
2018-11-22T20:06:02.192Z,19.50
2018-11-22T20:08:52.752Z,22.30
2018-11-22T20:11:43.961Z,46.73
2018-11-22T20:14:26.404Z,46.07
2018-11-22T20:17:17.158Z,22.85
2018-11-22T20:20:08.320Z,19.70
2018-11-22T20:22:58.856Z,19.03
2018-11-22T20:25:49.258Z,18.77
2018-11-22T20:28:39.575Z,18.60
2018-11-22T20:31:29.917Z,19.75
2018-11-22T20:34:20.268Z,19.20
2018-11-22T20:37:10.618Z,18.40
2018-11-22T20:40:01.002Z,19.03
2018-11-22T20:43:09.815Z,18.87
2018-11-22T20:46:00.286Z,19.47
2018-11-22T20:48:50.798Z,19.17
2018-11-22T20:51:40.970Z,18.87
2018-11-22T20:54:31.975Z,18.90
2018-11-22T20:57:22.175Z,18.63
2018-11-22T21:00:35.407Z,19.20
2018-11-22T21:03:25.740Z,20.83
2018-11-22T21:09:11.588Z,32.17
2018-11-22T21:12:01.893Z,79.07
2018-11-22T21:14:52.169Z,35.37
2018-11-22T21:17:43.167Z,21.97
2018-11-22T21:20:35.084Z,21.07
2018-11-22T21:23:25.418Z,21.62
2018-11-22T21:26:34.297Z,20.27
2018-11-22T21:29:24.694Z,19.87
2018-11-22T21:32:14.918Z,19.63
2018-11-22T21:38:02.193Z,20.27
2018-11-22T21:40:52.441Z,20.37
2018-11-22T21:43:42.965Z,18.53
2018-11-22T21:46:33.673Z,20.40
2018-11-22T21:49:42.744Z,20.00
2018-11-22T21:52:33.091Z,18.33
2018-11-22T21:55:41.932Z,18.70
2018-11-22T21:58:32.199Z,18.37
2018-11-22T22:01:22.479Z,19.25
2018-11-22T22:04:12.803Z,19.17
2018-11-22T22:07:02.957Z,18.73
2018-11-22T22:09:53.750Z,18.77
2018-11-22T22:12:44.090Z,19.17
2018-11-22T22:15:52.734Z,19.67
2018-11-22T22:18:43.078Z,20.20
2018-11-22T22:21:33.182Z,19.27
2018-11-22T22:24:23.446Z,19.73
2018-11-22T22:27:13.751Z,19.60
2018-11-22T22:30:03.972Z,18.05
2018-11-22T22:32:56.485Z,18.90
2018-11-22T22:35:46.555Z,18.83
2018-11-22T22:38:36.788Z,18.77
2018-11-22T22:41:26.879Z,18.70
2018-11-22T22:44:16.967Z,18.80
2018-11-22T22:47:07.102Z,19.00
2018-11-22T22:49:57.719Z,19.50
2018-11-22T22:52:48.773Z,20.27
2018-11-22T22:55:38.994Z,21.40
2018-11-22T22:58:29.221Z,20.60
2018-11-22T23:01:19.327Z,19.43
2018-11-22T23:04:10.617Z,45.78
2018-11-22T23:07:00.703Z,38.23
2018-11-22T23:09:50.843Z,21.60
2018-11-22T23:12:59.469Z,20.03
2018-11-22T23:15:49.571Z,20.33
2018-11-22T23:18:39.639Z,20.73
2018-11-22T23:21:29.753Z,20.50
2018-11-22T23:24:20.057Z,22.47
2018-11-22T23:27:10.125Z,21.25
2018-11-22T23:30:00.239Z,22.63
2018-11-22T23:32:51.612Z,21.60
2018-11-22T23:35:41.728Z,21.60
2018-11-22T23:38:31.825Z,23.15
2018-11-22T23:41:22.137Z,19.53
2018-11-22T23:44:12.291Z,20.52
2018-11-22T23:47:02.379Z,20.07
2018-11-22T23:49:52.444Z,21.17
2018-11-22T23:52:43.304Z,20.50
2018-11-22T23:55:33.351Z,22.07
2018-11-22T23:58:23.503Z,20.40
